createdAt,value
2018-05-04T00:01:29.118Z,7.10
2018-05-04T00:03:55.260Z,7.10
2018-05-04T00:06:21.424Z,6.90
2018-05-04T00:08:47.631Z,6.90
2018-05-04T00:11:13.744Z,6.80
2018-05-04T00:13:39.971Z,6.80
2018-05-04T00:16:06.862Z,6.70
2018-05-04T00:18:33.010Z,6.70
2018-05-04T00:20:59.154Z,6.70
2018-05-04T00:23:25.288Z,6.70
2018-05-04T00:25:51.446Z,6.70
2018-05-04T00:28:17.554Z,6.70
2018-05-04T00:30:43.730Z,6.60
2018-05-04T00:33:09.855Z,6.50
2018-05-04T00:35:36.791Z,6.50
2018-05-04T00:38:02.970Z,6.50
2018-05-04T00:40:29.067Z,6.40
2018-05-04T00:42:55.243Z,6.40
2018-05-04T00:45:21.422Z,6.40
2018-05-04T00:47:48.344Z,6.10
2018-05-04T00:50:14.459Z,6.00
2018-05-04T00:52:40.615Z,6.10
2018-05-04T00:55:06.750Z,6.10
2018-05-04T00:57:32.953Z,6.10
2018-05-04T00:59:59.134Z,6.10
2018-05-04T01:02:25.254Z,6.10
2018-05-04T01:04:51.419Z,6.00
2018-05-04T01:07:18.368Z,5.90
2018-05-04T01:09:44.505Z,5.90
2018-05-04T01:12:10.641Z,5.90
2018-05-04T01:14:36.730Z,5.90
2018-05-04T01:17:02.941Z,5.90
2018-05-04T01:19:29.055Z,5.90
2018-05-04T01:21:55.256Z,5.90
2018-05-04T01:24:26.665Z,5.90
2018-05-04T01:26:52.822Z,5.90
2018-05-04T01:29:18.956Z,5.80
2018-05-04T01:31:45.102Z,5.70
2018-05-04T01:34:11.252Z,5.60
2018-05-04T01:36:37.453Z,5.50
2018-05-04T01:39:03.569Z,5.50
2018-05-04T01:41:30.682Z,5.30
2018-05-04T01:43:56.780Z,5.20
2018-05-04T01:46:23.679Z,5.30
2018-05-04T01:48:49.766Z,5.20
2018-05-04T01:51:16.626Z,5.20
2018-05-04T01:53:43.503Z,5.20
2018-05-04T01:56:09.667Z,5.20
2018-05-04T01:58:36.848Z,5.20
2018-05-04T02:01:02.982Z,5.10
2018-05-04T02:03:29.642Z,5.10
2018-05-04T02:05:55.786Z,5.00
2018-05-04T02:08:21.903Z,5.00
2018-05-04T02:10:48.018Z,5.00
2018-05-04T02:13:14.197Z,5.00
2018-05-04T02:15:40.346Z,5.00
2018-05-04T02:18:06.478Z,4.90
2018-05-04T02:20:33.438Z,5.00
2018-05-04T02:22:59.579Z,4.90
2018-05-04T02:25:25.722Z,4.90
2018-05-04T02:27:51.853Z,4.90
2018-05-04T02:30:18.026Z,4.80
2018-05-04T02:32:49.665Z,4.60
2018-05-04T02:35:16.623Z,4.50
2018-05-04T02:37:42.764Z,4.50
2018-05-04T02:40:08.940Z,4.50
2018-05-04T02:42:35.137Z,4.50
2018-05-04T02:45:01.316Z,4.50
2018-05-04T02:47:27.544Z,4.50
2018-05-04T02:49:53.666Z,4.40
2018-05-04T02:52:19.812Z,4.40
2018-05-04T02:54:45.937Z,4.40
2018-05-04T02:57:12.103Z,4.30
2018-05-04T02:59:38.227Z,4.30
2018-05-04T03:02:04.457Z,4.30
2018-05-04T03:04:30.630Z,4.30
2018-05-04T03:09:49.969Z,4.30
2018-05-04T03:12:16.911Z,4.20
2018-05-04T03:14:43.135Z,4.20
2018-05-04T03:17:09.228Z,4.20
2018-05-04T03:19:36.195Z,4.20
2018-05-04T03:22:03.420Z,4.20
2018-05-04T03:24:29.558Z,4.10
2018-05-04T03:26:55.688Z,4.10
2018-05-04T03:29:22.827Z,4.00
2018-05-04T03:31:49.038Z,3.90
2018-05-04T03:34:15.901Z,3.90
2018-05-04T03:36:42.115Z,3.80
2018-05-04T03:39:08.345Z,3.90
2018-05-04T03:41:34.569Z,3.80
2018-05-04T03:44:00.718Z,3.80
2018-05-04T03:46:26.858Z,3.70
2018-05-04T03:48:52.998Z,3.40
2018-05-04T03:51:20.149Z,3.40
2018-05-04T03:53:46.500Z,3.40
2018-05-04T03:56:12.638Z,3.50
2018-05-04T03:58:51.234Z,3.50
2018-05-04T04:01:30.694Z,3.50
2018-05-04T04:04:05.812Z,3.60
2018-05-04T04:06:32.095Z,3.60
2018-05-04T04:08:58.268Z,3.60
2018-05-04T04:11:24.405Z,3.50
2018-05-04T04:13:50.531Z,3.60
2018-05-04T04:16:16.704Z,3.60
2018-05-04T04:18:42.924Z,3.60
2018-05-04T04:21:09.102Z,3.70
2018-05-04T04:23:35.309Z,3.80
2018-05-04T04:26:01.457Z,3.80
2018-05-04T04:28:27.586Z,3.80
2018-05-04T04:30:53.706Z,3.90
2018-05-04T04:33:19.888Z,4.00
2018-05-04T04:35:46.035Z,3.90
2018-05-04T04:38:12.324Z,3.80
2018-05-04T04:40:38.493Z,3.70
2018-05-04T04:43:04.647Z,3.80
2018-05-04T04:45:30.886Z,3.80
2018-05-04T04:47:57.026Z,3.80
2018-05-04T04:50:23.147Z,4.00
2018-05-04T04:52:49.347Z,4.10
2018-05-04T04:55:16.259Z,4.30
2018-05-04T04:57:42.408Z,4.20
2018-05-04T05:00:08.555Z,4.30
2018-05-04T05:02:34.713Z,4.30
2018-05-04T05:05:00.923Z,4.40
2018-05-04T05:07:27.120Z,4.50
2018-05-04T05:09:53.298Z,4.70
2018-05-04T05:12:19.441Z,4.80
2018-05-04T05:14:45.557Z,5.00
2018-05-04T05:17:11.727Z,5.20
2018-05-04T05:19:37.882Z,5.10
2018-05-04T05:22:04.021Z,5.20
2018-05-04T05:24:30.142Z,5.30
2018-05-04T05:26:56.499Z,5.50
2018-05-04T05:29:22.638Z,5.70
2018-05-04T05:31:48.766Z,5.80
2018-05-04T05:34:14.908Z,6.00
2018-05-04T05:36:41.049Z,6.10
2018-05-04T05:39:07.194Z,6.20
2018-05-04T05:41:33.331Z,6.40
2018-05-04T05:43:59.499Z,6.60
2018-05-04T05:46:25.735Z,6.70
2018-05-04T05:48:52.041Z,6.90
2018-05-04T05:51:19.229Z,7.10
2018-05-04T05:53:45.358Z,7.30
2018-05-04T05:56:11.517Z,7.50
2018-05-04T05:58:37.674Z,7.70
2018-05-04T06:01:03.929Z,7.80
2018-05-04T06:03:30.850Z,8.10
2018-05-04T06:05:57.003Z,8.10
2018-05-04T06:08:23.158Z,8.20
2018-05-04T06:10:49.415Z,8.30
2018-05-04T06:13:16.333Z,8.60
2018-05-04T06:15:42.492Z,8.60
2018-05-04T06:18:08.607Z,8.80
2018-05-04T06:20:34.816Z,8.90
2018-05-04T06:23:00.997Z,9.10
2018-05-04T06:25:27.131Z,9.20
2018-05-04T06:27:53.287Z,9.40
2018-05-04T06:30:19.455Z,9.50
2018-05-04T06:32:46.394Z,9.80
2018-05-04T06:35:12.514Z,9.80
2018-05-04T06:37:38.682Z,9.90
2018-05-04T06:40:04.900Z,10.10
2018-05-04T06:42:31.002Z,10.20
2018-05-04T06:44:57.191Z,10.40
2018-05-04T06:47:23.322Z,10.50
2018-05-04T06:49:49.458Z,10.60
2018-05-04T06:52:15.607Z,10.80
2018-05-04T06:54:41.734Z,10.90
2018-05-04T06:57:07.935Z,11.10
2018-05-04T06:59:34.846Z,11.40
2018-05-04T07:02:01.102Z,11.40
2018-05-04T07:04:27.330Z,11.50
2018-05-04T07:06:53.667Z,11.70
2018-05-04T07:09:19.804Z,11.80
2018-05-04T07:11:46.978Z,12.00
2018-05-04T07:14:13.160Z,12.00
2018-05-04T07:16:39.245Z,12.10
2018-05-04T07:19:05.410Z,12.30
2018-05-04T07:21:32.598Z,12.30
2018-05-04T07:23:58.802Z,12.30
2018-05-04T07:26:24.964Z,12.50
2018-05-04T07:28:52.106Z,12.70
2018-05-04T07:31:18.249Z,12.80
2018-05-04T07:33:44.384Z,12.90
2018-05-04T07:36:10.588Z,13.10
2018-05-04T07:38:36.770Z,13.10
2018-05-04T07:41:02.977Z,13.30
2018-05-04T07:43:29.863Z,13.40
2018-05-04T07:45:56.011Z,13.40
2018-05-04T07:48:22.155Z,13.40
2018-05-04T07:50:48.293Z,13.50
2018-05-04T07:53:14.436Z,13.60
2018-05-04T07:55:40.612Z,13.50
2018-05-04T07:58:06.881Z,13.50
2018-05-04T08:00:33.079Z,13.60
2018-05-04T08:02:59.263Z,13.90
2018-05-04T08:05:25.446Z,14.00
2018-05-04T08:07:51.691Z,14.00
2018-05-04T08:10:17.799Z,14.00
2018-05-04T08:12:43.958Z,14.10
2018-05-04T08:15:27.027Z,14.20
2018-05-04T08:17:53.237Z,14.30
2018-05-04T08:20:19.391Z,14.30
2018-05-04T08:22:45.514Z,14.30
2018-05-04T08:25:11.657Z,14.40
2018-05-04T08:27:37.889Z,14.40
2018-05-04T08:30:04.035Z,14.50
2018-05-04T08:32:30.175Z,14.60
2018-05-04T08:34:56.319Z,14.70
2018-05-04T08:37:22.466Z,14.80
2018-05-04T08:39:48.610Z,14.90
2018-05-04T08:42:14.730Z,15.00
2018-05-04T08:44:40.878Z,15.20
2018-05-04T08:47:07.037Z,15.20
2018-05-04T08:49:33.180Z,15.30
2018-05-04T08:51:59.322Z,15.40
2018-05-04T08:54:25.548Z,15.60
2018-05-04T08:56:51.591Z,15.70
2018-05-04T08:59:17.808Z,15.80
2018-05-04T09:01:44.707Z,15.90
2018-05-04T09:04:10.942Z,15.80
2018-05-04T09:06:37.049Z,15.80
2018-05-04T09:09:03.302Z,15.90
2018-05-04T09:11:29.475Z,15.90
2018-05-04T09:13:55.690Z,16.10
2018-05-04T09:16:21.900Z,16.00
2018-05-04T09:18:48.192Z,16.20
2018-05-04T09:21:14.262Z,16.20
2018-05-04T09:23:41.155Z,16.30
2018-05-04T09:26:07.326Z,16.30
2018-05-04T09:28:33.462Z,16.40
2018-05-04T09:30:59.618Z,16.40
2018-05-04T09:33:25.865Z,16.50
2018-05-04T09:35:52.083Z,16.60
2018-05-04T09:38:18.223Z,16.70
2018-05-04T09:40:44.332Z,16.70
2018-05-04T09:43:10.503Z,16.80
2018-05-04T09:45:36.645Z,16.90
2018-05-04T09:48:02.792Z,17.00
2018-05-04T09:50:28.975Z,17.10
2018-05-04T09:52:55.863Z,17.30
2018-05-04T09:55:22.020Z,17.20
2018-05-04T09:57:48.159Z,17.70
2018-05-04T10:00:14.299Z,17.40
2018-05-04T10:02:40.502Z,17.40
2018-05-04T10:05:07.386Z,17.80
2018-05-04T10:07:33.611Z,17.70
2018-05-04T10:09:59.770Z,17.90
2018-05-04T10:12:25.926Z,17.90
2018-05-04T10:14:52.090Z,18.10
2018-05-04T10:17:18.296Z,18.10
2018-05-04T10:19:44.445Z,17.90
2018-05-04T10:22:10.594Z,17.90
2018-05-04T10:24:36.723Z,18.10
2018-05-04T10:27:02.957Z,18.10
2018-05-04T10:29:29.099Z,18.30
2018-05-04T10:31:55.477Z,17.70
2018-05-04T10:34:21.644Z,17.90
2018-05-04T10:36:48.554Z,18.10
2018-05-04T10:39:14.779Z,18.00
2018-05-04T10:41:40.933Z,18.10
2018-05-04T10:44:07.105Z,18.20
2018-05-04T10:46:33.226Z,18.00
2018-05-04T10:49:00.225Z,17.40
2018-05-04T10:51:28.155Z,16.80
2018-05-04T10:53:54.276Z,16.70
2018-05-04T10:56:20.507Z,17.10
2018-05-04T10:58:47.433Z,17.40
2018-05-04T11:01:13.654Z,17.40
2018-05-04T11:03:39.783Z,17.30
2018-05-04T11:06:05.959Z,17.40
2018-05-04T11:08:32.215Z,17.40
2018-05-04T11:10:59.046Z,17.60
2018-05-04T11:13:25.291Z,17.60
2018-05-04T11:15:51.402Z,17.50
2018-05-04T11:18:17.609Z,17.60
2018-05-04T11:20:44.501Z,17.30
2018-05-04T11:23:25.584Z,17.20
2018-05-04T11:25:51.763Z,16.90
2018-05-04T11:28:17.865Z,16.90
2018-05-04T11:30:44.066Z,16.70
2018-05-04T11:33:10.247Z,17.00
2018-05-04T11:35:36.459Z,17.50
2018-05-04T11:38:03.366Z,18.10
2018-05-04T11:40:29.527Z,18.00
2018-05-04T11:42:55.763Z,17.80
2018-05-04T11:45:28.933Z,18.00
2018-05-04T11:47:55.085Z,18.30
2018-05-04T11:50:36.258Z,18.60
2018-05-04T11:53:02.453Z,18.70
2018-05-04T11:55:28.576Z,17.90
2018-05-04T11:57:54.727Z,17.90
2018-05-04T12:00:20.943Z,17.90
2018-05-04T12:02:47.095Z,18.10
2018-05-04T12:05:13.235Z,18.50
2018-05-04T12:07:39.365Z,18.90
2018-05-04T12:10:05.576Z,18.90
2018-05-04T12:12:32.479Z,19.20
2018-05-04T12:14:59.659Z,19.20
2018-05-04T12:17:25.959Z,19.30
2018-05-04T12:19:52.125Z,19.20
2018-05-04T12:22:18.268Z,18.80
2018-05-04T12:24:44.391Z,19.20
2018-05-04T12:27:10.645Z,19.20
2018-05-04T12:29:37.502Z,19.90
2018-05-04T12:32:04.799Z,19.80
2018-05-04T12:34:31.019Z,20.50
2018-05-04T12:36:57.154Z,21.80
2018-05-04T12:39:23.933Z,23.90
2018-05-04T12:41:50.143Z,25.90
2018-05-04T12:44:16.326Z,24.90
2018-05-04T12:46:43.246Z,29.50
2018-05-04T12:49:09.373Z,29.40
2018-05-04T12:51:35.534Z,30.90
2018-05-04T12:54:01.709Z,31.80
2018-05-04T12:56:27.903Z,32.90
2018-05-04T12:58:54.053Z,31.90
2018-05-04T13:01:21.209Z,32.00
2018-05-04T13:03:47.388Z,31.70
2018-05-04T13:06:13.599Z,32.40
2018-05-04T13:08:39.738Z,33.10
2018-05-04T13:11:05.914Z,33.40
2018-05-04T13:13:32.129Z,31.30
2018-05-04T13:15:58.304Z,31.20
2018-05-04T13:18:24.565Z,28.60
2018-05-04T13:20:51.514Z,29.80
2018-05-04T13:23:18.460Z,31.40
2018-05-04T13:25:44.639Z,31.30
2018-05-04T13:28:10.809Z,29.90
2018-05-04T13:30:36.934Z,28.20
2018-05-04T13:33:03.097Z,28.70
2018-05-04T13:35:29.231Z,31.00
2018-05-04T13:37:55.362Z,32.30
2018-05-04T13:40:21.560Z,33.60
2018-05-04T13:42:48.521Z,32.00
2018-05-04T13:45:17.011Z,30.20
2018-05-04T13:47:43.945Z,31.80
2018-05-04T13:50:10.087Z,31.80
2018-05-04T13:52:36.189Z,32.20
2018-05-04T13:55:02.341Z,33.40
2018-05-04T13:57:28.552Z,34.40
2018-05-04T13:59:54.702Z,31.40
2018-05-04T14:02:20.917Z,30.30
2018-05-04T14:04:47.859Z,31.20
2018-05-04T14:07:14.154Z,31.20
2018-05-04T14:09:40.326Z,30.30
2018-05-04T14:12:06.450Z,31.20
2018-05-04T14:14:32.607Z,32.60
2018-05-04T14:16:58.857Z,34.60
2018-05-04T14:19:24.990Z,35.10
2018-05-04T14:21:51.125Z,34.50
2018-05-04T14:24:17.243Z,35.20
2018-05-04T14:26:43.491Z,34.50
2018-05-04T14:29:09.652Z,33.70
2018-05-04T14:31:35.817Z,34.00
2018-05-04T14:34:02.027Z,34.70
2018-05-04T14:36:28.162Z,35.10
2018-05-04T14:38:54.315Z,31.60
2018-05-04T14:41:21.476Z,32.00
2018-05-04T14:43:47.605Z,30.60
2018-05-04T14:46:13.778Z,29.70
2018-05-04T14:48:39.995Z,28.00
2018-05-04T14:51:06.101Z,28.50
2018-05-04T14:53:32.279Z,28.60
2018-05-04T14:55:58.488Z,29.70
2018-05-04T14:58:24.660Z,28.30
2018-05-04T15:00:50.849Z,29.10
2018-05-04T15:03:17.752Z,27.50
2018-05-04T15:05:43.951Z,27.50
2018-05-04T15:08:10.198Z,26.80
2018-05-04T15:10:37.129Z,26.60
2018-05-04T15:13:03.366Z,26.60
2018-05-04T15:15:29.503Z,26.70
2018-05-04T15:17:56.072Z,28.70
2018-05-04T15:20:22.299Z,30.00
2018-05-04T15:22:49.324Z,31.70
2018-05-04T15:25:16.211Z,31.20
2018-05-04T15:27:42.398Z,31.10
2018-05-04T15:30:09.727Z,29.20
2018-05-04T15:32:35.945Z,29.20
2018-05-04T15:35:02.108Z,29.10
2018-05-04T15:37:28.240Z,27.00
2018-05-04T15:39:54.448Z,25.00
2018-05-04T15:42:20.491Z,26.90
2018-05-04T15:44:46.734Z,28.70
2018-05-04T15:47:12.884Z,30.30
2018-05-04T15:49:39.055Z,29.70
2018-05-04T15:52:06.018Z,26.60
2018-05-04T15:54:35.666Z,26.60
2018-05-04T15:57:02.571Z,29.10
2018-05-04T15:59:28.723Z,29.00
2018-05-04T16:01:54.862Z,29.70
2018-05-04T16:04:35.954Z,29.50
2018-05-04T16:07:03.751Z,29.70
2018-05-04T16:09:30.012Z,28.80
2018-05-04T16:11:56.949Z,29.10
2018-05-04T16:14:23.061Z,29.00
2018-05-04T16:16:49.247Z,30.20
2018-05-04T16:19:15.447Z,30.90
2018-05-04T16:21:42.608Z,31.00
2018-05-04T16:24:08.767Z,31.50
2018-05-04T16:26:34.935Z,31.50
2018-05-04T16:29:01.169Z,32.00
2018-05-04T16:31:28.307Z,32.20
2018-05-04T16:33:54.458Z,32.10
2018-05-04T16:36:20.578Z,32.20
2018-05-04T16:38:46.815Z,32.30
2018-05-04T16:41:12.993Z,32.20
2018-05-04T16:43:54.057Z,31.50
2018-05-04T16:46:26.369Z,31.20
2018-05-04T16:48:58.574Z,31.00
2018-05-04T16:51:25.710Z,31.00
2018-05-04T16:53:51.841Z,30.80
2018-05-04T16:56:18.791Z,30.10
2018-05-04T16:58:44.997Z,30.10
2018-05-04T17:01:11.901Z,29.50
2018-05-04T17:03:41.391Z,29.50
2018-05-04T17:06:07.600Z,29.10
2018-05-04T17:08:33.708Z,29.10
2018-05-04T17:10:59.862Z,28.90
2018-05-04T17:13:26.098Z,28.70
2018-05-04T17:15:52.352Z,28.40
2018-05-04T17:18:18.528Z,27.80
2018-05-04T17:20:44.757Z,27.00
2018-05-04T17:23:11.768Z,26.30
2018-05-04T17:25:37.914Z,25.80
2018-05-04T17:28:04.055Z,25.00
2018-05-04T17:30:30.231Z,24.50
2018-05-04T17:32:57.356Z,23.70
2018-05-04T17:35:23.495Z,23.70
2018-05-04T17:37:49.733Z,23.50
2018-05-04T17:40:15.951Z,23.30
2018-05-04T17:42:42.034Z,23.20
2018-05-04T17:45:08.195Z,23.20
2018-05-04T17:47:34.454Z,23.00
2018-05-04T17:50:00.646Z,23.00
2018-05-04T17:52:26.779Z,23.00
2018-05-04T17:54:52.929Z,23.00
2018-05-04T17:57:19.078Z,22.90
2018-05-04T17:59:45.206Z,22.70
2018-05-04T18:02:11.515Z,22.30
2018-05-04T18:04:37.701Z,22.10
2018-05-04T18:07:03.827Z,22.00
2018-05-04T18:09:29.984Z,22.20
2018-05-04T18:11:56.113Z,22.20
2018-05-04T18:14:22.288Z,22.20
2018-05-04T18:16:48.486Z,22.10
2018-05-04T18:19:14.635Z,21.70
2018-05-04T18:21:40.787Z,21.50
2018-05-04T18:24:06.990Z,21.00
2018-05-04T18:26:33.171Z,20.80
2018-05-04T18:28:59.294Z,20.40
2018-05-04T18:31:25.449Z,20.20
2018-05-04T18:33:51.626Z,20.00
2018-05-04T18:36:18.533Z,19.60
2018-05-04T18:38:44.714Z,19.60
2018-05-04T18:41:10.919Z,19.40
2018-05-04T18:43:37.082Z,19.20
2018-05-04T18:46:03.212Z,18.90
2018-05-04T18:48:30.186Z,18.30
2018-05-04T18:50:57.175Z,17.80
2018-05-04T18:53:24.074Z,17.50
2018-05-04T18:55:50.253Z,17.50
2018-05-04T18:58:16.489Z,17.40
2018-05-04T19:00:45.974Z,17.30
2018-05-04T19:03:18.282Z,17.30
2018-05-04T19:05:44.436Z,17.20
2018-05-04T19:08:10.741Z,17.10
2018-05-04T19:10:36.891Z,16.90
2018-05-04T19:13:03.082Z,16.60
2018-05-04T19:15:29.983Z,16.20
2018-05-04T19:17:56.135Z,16.20
2018-05-04T19:20:22.327Z,16.10
2018-05-04T19:22:49.202Z,15.70
2018-05-04T19:25:15.382Z,15.70
2018-05-04T19:27:41.512Z,15.60
2018-05-04T19:30:07.695Z,15.50
2018-05-04T19:32:33.995Z,15.50
2018-05-04T19:35:00.182Z,15.40
2018-05-04T19:37:26.384Z,15.40
2018-05-04T19:39:53.654Z,15.40
2018-05-04T19:42:19.815Z,15.30
2018-05-04T19:44:45.942Z,15.00
2018-05-04T19:47:12.140Z,14.90
2018-05-04T19:49:38.308Z,14.70
2018-05-04T21:08:01.601Z,12.00
2018-05-04T21:10:28.095Z,11.90
2018-05-04T21:12:54.263Z,12.00
2018-05-04T21:15:20.479Z,12.10
2018-05-04T21:17:46.656Z,12.20
2018-05-04T21:20:13.621Z,12.20
2018-05-04T21:22:39.805Z,12.10
2018-05-04T21:25:05.942Z,12.20
2018-05-04T21:27:32.099Z,12.20
2018-05-04T21:29:58.260Z,12.20
2018-05-04T21:32:24.471Z,12.20
2018-05-04T21:34:50.649Z,12.10
2018-05-04T21:37:17.528Z,12.10
2018-05-04T21:39:44.480Z,12.00
2018-05-04T21:42:11.371Z,12.00
2018-05-04T21:44:37.526Z,12.00
2018-05-04T21:47:03.666Z,12.00
2018-05-04T21:49:29.843Z,12.00
2018-05-04T21:51:56.067Z,11.90
2018-05-04T21:54:22.289Z,11.90
2018-05-04T21:56:48.440Z,11.90
2018-05-04T21:59:14.695Z,11.80
2018-05-04T22:01:41.573Z,11.70
2018-05-04T22:04:08.699Z,11.70
2018-05-04T22:06:34.831Z,11.60
2018-05-04T22:09:00.966Z,11.60
2018-05-04T22:11:27.170Z,11.60
2018-05-04T22:13:54.793Z,11.50
2018-05-04T22:16:20.930Z,11.50
2018-05-04T22:18:47.094Z,11.50
2018-05-04T22:21:13.341Z,11.40
2018-05-04T22:23:39.580Z,11.40
2018-05-04T22:26:05.842Z,11.40
2018-05-04T22:28:32.036Z,11.40
2018-05-04T22:30:58.197Z,11.30
2018-05-04T22:33:24.334Z,11.20
2018-05-04T22:35:50.499Z,11.20
2018-05-04T22:38:16.706Z,11.20
2018-05-04T22:40:42.847Z,11.10
2018-05-04T22:43:09.052Z,11.10
2018-05-04T22:45:35.238Z,11.10
2018-05-04T22:48:01.419Z,11.00
2018-05-04T22:50:27.710Z,11.00
2018-05-04T22:52:53.908Z,10.90
2018-05-04T22:55:20.843Z,10.80
2018-05-04T22:57:47.047Z,10.80
2018-05-04T23:00:13.195Z,10.80
2018-05-04T23:02:39.324Z,10.70
2018-05-04T23:05:05.460Z,10.70
2018-05-04T23:07:31.671Z,10.50
2018-05-04T23:09:58.586Z,10.50
2018-05-04T23:12:24.825Z,10.40
2018-05-04T23:14:50.997Z,10.50
2018-05-04T23:17:17.229Z,10.40
2018-05-04T23:19:44.370Z,10.50
2018-05-04T23:22:23.200Z,10.30
2018-05-04T23:24:49.331Z,10.30
2018-05-04T23:27:15.481Z,10.30
2018-05-04T23:29:41.655Z,10.20
2018-05-04T23:32:07.875Z,10.20
2018-05-04T23:34:34.181Z,10.20
2018-05-04T23:37:00.246Z,10.20
2018-05-04T23:39:26.394Z,10.10
2018-05-04T23:41:52.544Z,10.00
2018-05-04T23:44:18.699Z,10.00
2018-05-04T23:46:44.849Z,9.90
2018-05-04T23:49:11.072Z,9.90
2018-05-04T23:51:37.191Z,9.90
2018-05-04T23:54:03.295Z,9.80
2018-05-04T23:56:30.203Z,9.60
2018-05-04T23:58:56.360Z,9.60
